createdAt,value
2016-10-29T00:00:50.656Z,71.61
2016-10-29T00:02:01.012Z,71.61
2016-10-29T00:03:11.305Z,71.8
2016-10-29T00:04:20.668Z,71.61
2016-10-29T00:05:30.049Z,71.89
2016-10-29T00:06:40.047Z,71.7
2016-10-29T00:07:50.338Z,71.61
2016-10-29T00:09:00.631Z,71.7
2016-10-29T00:10:10.919Z,71.61
2016-10-29T00:11:21.211Z,71.61
2016-10-29T00:12:31.225Z,71.7
2016-10-29T00:13:41.216Z,71.89
2016-10-29T00:14:51.514Z,71.61
2016-10-29T00:16:00.888Z,71.7
2016-10-29T00:17:10.905Z,71.89
2016-10-29T00:18:21.222Z,71.8
2016-10-29T00:19:31.201Z,71.89
2016-10-29T00:20:40.885Z,71.64
2016-10-29T00:21:50.884Z,71.93
2016-10-29T00:23:01.221Z,71.8
2016-10-29T00:24:11.220Z,71.83
2016-10-29T00:25:20.925Z,72.08
2016-10-29T00:26:30.610Z,72.28
2016-10-29T00:27:40.338Z,72.31
2016-10-29T00:28:50.638Z,71.93
2016-10-29T00:30:00.654Z,71.73
2016-10-29T00:31:10.974Z,71.83
2016-10-29T00:32:21.280Z,71.64
2016-10-29T00:33:30.981Z,71.83
2016-10-29T00:34:41.323Z,71.64
2016-10-29T00:35:51.632Z,72.31
2016-10-29T00:37:01.952Z,71.99
2016-10-29T00:38:12.230Z,71.89
2016-10-29T00:39:21.926Z,71.93
2016-10-29T00:40:31.653Z,71.89
2016-10-29T00:41:41.644Z,71.7
2016-10-29T00:42:51.940Z,72.18
2016-10-29T00:44:01.938Z,71.73
2016-10-29T00:45:12.275Z,71.64
2016-10-29T00:46:22.582Z,71.93
2016-10-29T00:47:32.869Z,71.45
2016-10-29T00:48:43.183Z,71.93
2016-10-29T00:49:53.486Z,71.64
2016-10-29T00:51:03.487Z,71.61
2016-10-29T00:52:12.866Z,71.83
2016-10-29T00:53:23.199Z,71.7
2016-10-29T00:54:33.182Z,71.8
2016-10-29T00:55:43.510Z,71.8
2016-10-29T00:56:53.790Z,71.83
2016-10-29T00:58:04.102Z,71.64
2016-10-29T00:59:14.140Z,71.55
2016-10-29T01:00:24.157Z,71.7
2016-10-29T01:01:34.460Z,71.83
2016-10-29T01:02:44.449Z,71.61
2016-10-29T01:03:54.750Z,71.7
2016-10-29T01:05:04.786Z,71.61
2016-10-29T01:06:14.825Z,71.83
2016-10-29T01:07:25.143Z,71.61
2016-10-29T01:08:35.127Z,71.61
2016-10-29T01:09:45.170Z,71.61
2016-10-29T01:10:55.149Z,72.08
2016-10-29T01:12:05.453Z,71.89
2016-10-29T01:13:15.772Z,71.61
2016-10-29T01:14:25.438Z,71.61
2016-10-29T01:15:35.964Z,71.51
2016-10-29T01:16:45.952Z,71.61
2016-10-29T01:17:56.241Z,72.08
2016-10-29T01:19:06.544Z,71.89
2016-10-29T01:20:16.856Z,71.99
2016-10-29T01:21:27.160Z,71.99
2016-10-29T01:22:37.158Z,71.8
2016-10-29T01:23:47.495Z,71.89
2016-10-29T01:24:57.788Z,71.8
2016-10-29T01:26:08.087Z,71.7
2016-10-29T01:27:18.398Z,71.7
2016-10-29T01:28:28.385Z,71.89
2016-10-29T01:29:38.070Z,71.99
2016-10-29T01:30:48.367Z,71.8
2016-10-29T01:31:58.073Z,71.89
2016-10-29T01:33:08.084Z,71.89
2016-10-29T01:34:18.378Z,71.89
2016-10-29T01:35:28.672Z,71.51
2016-10-29T01:36:38.648Z,71.7
2016-10-29T01:37:48.955Z,71.61
2016-10-29T01:38:59.261Z,71.8
2016-10-29T01:40:09.565Z,71.61
2016-10-29T01:41:19.238Z,71.7
2016-10-29T01:42:28.926Z,71.89
2016-10-29T01:43:38.906Z,71.8
2016-10-29T01:44:49.200Z,71.89
2016-10-29T01:45:58.579Z,71.8
2016-10-29T01:47:08.883Z,71.51
2016-10-29T01:48:19.164Z,71.7
2016-10-29T01:49:28.839Z,71.7
2016-10-29T01:50:39.147Z,71.61
2016-10-29T01:51:49.129Z,71.61
2016-10-29T01:52:58.823Z,71.8
2016-10-29T01:54:08.853Z,71.89
2016-10-29T01:55:18.531Z,71.89
2016-10-29T01:56:28.509Z,71.61
2016-10-29T01:57:38.845Z,71.7
2016-10-29T01:58:49.181Z,71.89
2016-10-29T01:59:59.472Z,72.18
2016-10-29T02:01:09.502Z,72.37
2016-10-29T02:02:19.827Z,72.08
2016-10-29T02:03:29.818Z,71.99
2016-10-29T02:04:40.122Z,72.18
2016-10-29T02:05:49.803Z,71.99
2016-10-29T02:06:59.787Z,72.18
2016-10-29T02:08:09.781Z,72.18
2016-10-29T02:09:19.780Z,72.18
2016-10-29T02:10:30.099Z,72.18
2016-10-29T02:11:40.105Z,72.08
2016-10-29T02:12:50.145Z,72.18
2016-10-29T02:14:00.436Z,72.18
2016-10-29T02:15:10.728Z,72.28
2016-10-29T02:16:21.018Z,72.28
2016-10-29T02:17:31.011Z,72.28
2016-10-29T02:18:41.012Z,72.18
2016-10-29T02:19:50.700Z,72.37
2016-10-29T02:21:00.711Z,72.18
2016-10-29T02:22:10.723Z,72.28
2016-10-29T02:23:21.033Z,71.89
2016-10-29T02:24:31.327Z,71.89
2016-10-29T02:25:41.633Z,72.37
2016-10-29T02:26:51.942Z,71.61
2016-10-29T02:28:02.252Z,71.89
2016-10-29T02:29:12.576Z,71.89
2016-10-29T02:30:22.586Z,71.8
2016-10-29T02:31:32.564Z,71.7
2016-10-29T02:32:42.865Z,71.89
2016-10-29T02:33:53.173Z,71.89
2016-10-29T02:35:03.510Z,72.18
2016-10-29T02:36:13.812Z,71.7
2016-10-29T02:37:23.803Z,72.08
2016-10-29T02:38:33.789Z,71.8
2016-10-29T02:39:44.106Z,71.83
2016-10-29T02:40:54.094Z,71.8
2016-10-29T02:42:04.092Z,72.18
2016-10-29T02:43:14.406Z,72.31
2016-10-29T02:44:24.716Z,72.22
2016-10-29T02:45:35.020Z,71.73
2016-10-29T02:46:45.300Z,71.8
2016-10-29T02:47:55.604Z,71.99
2016-10-29T02:49:05.924Z,71.83
2016-10-29T02:50:15.626Z,72.31
2016-10-29T02:51:25.619Z,71.83
2016-10-29T02:52:35.973Z,72.22
2016-10-29T02:53:46.266Z,72.22
2016-10-29T02:54:56.614Z,71.99
2016-10-29T02:56:06.612Z,72.22
2016-10-29T02:57:16.609Z,72.02
2016-10-29T02:58:26.600Z,72.22
2016-10-29T02:59:36.284Z,72.22
2016-10-29T03:00:45.951Z,71.93
2016-10-29T03:32:08.267Z,68.76
2016-10-29T03:33:18.553Z,69.9
2016-10-29T03:34:28.840Z,71.04
2016-10-29T03:35:39.175Z,71.62
2016-10-29T03:36:48.842Z,72.19
2016-10-29T03:37:58.835Z,72.96
2016-10-29T03:39:09.130Z,72.96
2016-10-29T03:40:19.462Z,72.76
2016-10-29T03:41:29.907Z,73.08
2016-10-29T03:42:40.217Z,73.28
2016-10-29T03:43:50.502Z,73.47
2016-10-29T03:45:00.790Z,73.12
2016-10-29T03:46:10.487Z,73.32
2016-10-29T03:47:20.772Z,73.32
2016-10-29T03:48:30.759Z,73.32
2016-10-29T03:49:40.137Z,72.78
2016-10-29T03:50:50.457Z,73.07
2016-10-29T03:52:00.185Z,72.78
2016-10-29T03:53:10.515Z,72.97
2016-10-29T03:54:20.813Z,73.07
2016-10-29T03:55:31.115Z,73.25
2016-10-29T03:56:41.454Z,73.1
2016-10-29T03:57:51.444Z,72.62
2016-10-29T03:59:01.113Z,72.62
2016-10-29T04:00:11.427Z,72.53
2016-10-29T04:01:21.420Z,72.81
2016-10-29T04:02:31.724Z,72.81
2016-10-29T04:03:42.035Z,73.1
2016-10-29T04:04:51.719Z,72.37
2016-10-29T04:06:01.711Z,72.28
2016-10-29T04:07:11.696Z,72.47
2016-10-29T04:08:22.010Z,72.56
2016-10-29T04:09:31.995Z,72.28
2016-10-29T04:10:42.044Z,72.47
2016-10-29T04:11:51.447Z,72.56
2016-10-29T04:13:01.760Z,72.66
2016-10-29T04:14:11.742Z,72.28
2016-10-29T04:15:22.039Z,72.18
2016-10-29T04:16:31.719Z,72.37
2016-10-29T04:17:42.057Z,72.08
2016-10-29T04:18:52.348Z,71.89
2016-10-29T04:20:02.679Z,72.47
2016-10-29T04:21:12.992Z,72.18
2016-10-29T04:22:22.989Z,72.18
2016-10-29T04:23:33.319Z,72.28
2016-10-29T04:24:43.628Z,71.99
2016-10-29T04:25:53.941Z,72.37
2016-10-29T04:27:04.239Z,72.28
2016-10-29T04:28:14.535Z,72.28
2016-10-29T04:29:24.872Z,71.89
2016-10-29T04:30:35.167Z,72.28
2016-10-29T04:31:45.467Z,72.47
2016-10-29T04:32:55.462Z,72.18
2016-10-29T04:34:05.454Z,72.47
2016-10-29T04:35:15.747Z,72.47
2016-10-29T04:36:26.043Z,72.28
2016-10-29T04:37:36.346Z,72.37
2016-10-29T04:38:46.325Z,71.89
2016-10-29T04:39:56.643Z,71.99
2016-10-29T04:41:06.639Z,72.28
2016-10-29T04:42:16.947Z,72.56
2016-10-29T04:43:27.239Z,72.47
2016-10-29T04:44:37.547Z,72.47
2016-10-29T04:45:47.538Z,72.08
2016-10-29T04:46:57.831Z,72.18
2016-10-29T04:48:07.831Z,71.89
2016-10-29T04:49:17.526Z,72.18
2016-10-29T04:50:27.522Z,72.28
2016-10-29T04:51:37.828Z,72.18
2016-10-29T04:52:48.158Z,72.47
2016-10-29T04:53:58.151Z,72.37
2016-10-29T04:55:08.504Z,71.89
2016-10-29T04:56:18.182Z,71.99
2016-10-29T04:57:28.493Z,72.56
2016-10-29T04:58:38.810Z,71.89
2016-10-29T04:59:49.128Z,71.99
2016-10-29T05:00:59.143Z,72.56
2016-10-29T05:02:09.501Z,72.56
2016-10-29T05:03:19.485Z,72.18
2016-10-29T05:04:29.827Z,71.99
2016-10-29T05:05:40.134Z,71.89
2016-10-29T05:06:50.118Z,72.37
2016-10-29T05:07:59.801Z,71.89
2016-10-29T05:09:10.102Z,72.18
2016-10-29T05:10:20.436Z,72.47
2016-10-29T05:11:30.165Z,72.18
2016-10-29T05:12:40.467Z,72.37
2016-10-29T05:13:50.766Z,72.47
2016-10-29T05:15:01.053Z,72.28
2016-10-29T05:16:11.353Z,71.89
2016-10-29T05:17:21.341Z,72.47
2016-10-29T05:18:31.328Z,72.47
2016-10-29T05:19:41.625Z,72.18
2016-10-29T05:20:51.334Z,72.56
2016-10-29T05:22:01.322Z,72.47
2016-10-29T05:23:11.312Z,72.56
2016-10-29T05:24:21.601Z,72.47
2016-10-29T05:25:31.628Z,72.28
2016-10-29T05:26:41.927Z,72.37
2016-10-29T05:27:51.945Z,72.18
2016-10-29T05:29:02.239Z,72.28
2016-10-29T05:30:12.555Z,72.18
2016-10-29T05:31:22.851Z,71.89
2016-10-29T05:32:33.163Z,71.89
2016-10-29T05:33:43.459Z,72.18
2016-10-29T05:34:53.766Z,72.18
2016-10-29T05:36:03.739Z,72.47
2016-10-29T05:37:14.046Z,72.47
2016-10-29T05:38:24.337Z,72.37
2016-10-29T05:39:34.632Z,72.37
2016-10-29T05:40:44.930Z,72.28
2016-10-29T05:41:55.232Z,72.28
2016-10-29T05:43:05.221Z,71.89
2016-10-29T05:44:15.529Z,72.37
2016-10-29T05:45:25.876Z,72.28
2016-10-29T05:46:35.567Z,72.28
2016-10-29T05:47:45.595Z,72.18
2016-10-29T05:48:55.897Z,71.89
2016-10-29T05:50:06.213Z,71.8
2016-10-29T05:51:16.209Z,71.89
2016-10-29T05:52:26.547Z,72.28
2016-10-29T05:53:36.887Z,72.18
2016-10-29T05:54:47.196Z,71.7
2016-10-29T05:55:57.170Z,71.99
2016-10-29T05:57:07.480Z,71.99
2016-10-29T05:58:17.164Z,71.89
2016-10-29T05:59:27.475Z,71.8
2016-10-29T06:00:37.785Z,71.8
2016-10-29T06:01:48.085Z,71.8
2016-10-29T06:02:58.404Z,71.99
2016-10-29T06:04:08.725Z,71.7
2016-10-29T06:05:19.016Z,71.89
2016-10-29T06:06:29.349Z,71.89
2016-10-29T06:07:39.332Z,71.89
2016-10-29T06:08:49.310Z,71.8
2016-10-29T06:09:59.617Z,71.89
2016-10-29T06:11:09.977Z,71.89
2016-10-29T06:12:20.286Z,71.8
2016-10-29T06:13:30.262Z,71.89
2016-10-29T06:14:40.564Z,71.89
2016-10-29T06:15:50.861Z,71.89
2016-10-29T06:17:00.883Z,71.89
2016-10-29T06:18:11.205Z,71.7
2016-10-29T06:19:21.193Z,71.83
2016-10-29T06:20:31.482Z,71.7
2016-10-29T06:21:41.171Z,72.08
2016-10-29T06:22:51.475Z,71.83
2016-10-29T06:24:01.754Z,72.31
2016-10-29T06:25:12.046Z,72.22
2016-10-29T06:26:22.351Z,72.31
2016-10-29T06:27:32.636Z,72.02
2016-10-29T06:28:42.936Z,72.12
2016-10-29T06:29:53.227Z,72.02
2016-10-29T06:31:03.518Z,71.83
2016-10-29T06:32:13.496Z,71.83
2016-10-29T06:33:23.729Z,72.22
2016-10-29T06:34:34.029Z,71.45
2016-10-29T06:35:44.027Z,71.64
2016-10-29T06:36:54.322Z,70.97
2016-10-29T06:38:04.345Z,70.97
2016-10-29T06:39:14.647Z,71.07
2016-10-29T06:40:24.960Z,71.45
2016-10-29T06:41:34.651Z,71.64
2016-10-29T06:42:44.942Z,71.07
2016-10-29T06:43:54.972Z,71.36
2016-10-29T06:45:04.963Z,71.55
2016-10-29T06:46:15.273Z,71.36
2016-10-29T06:47:25.257Z,71.26
2016-10-29T06:48:34.948Z,71.45
2016-10-29T06:49:45.243Z,71.26
2016-10-29T06:50:55.216Z,71.64
2016-10-29T06:52:05.524Z,71.64
2016-10-29T06:53:15.827Z,71.36
2016-10-29T06:54:26.137Z,71.36
2016-10-29T06:55:36.450Z,71.55
2016-10-29T06:56:46.442Z,71.26
2016-10-29T06:57:56.476Z,71.26
2016-10-29T06:59:06.146Z,71.55
2016-10-29T07:00:16.452Z,71.64
2016-10-29T07:01:26.443Z,72.22
2016-10-29T07:02:36.751Z,71.55
2016-10-29T07:03:47.286Z,70.97
2016-10-29T07:04:57.591Z,71.36
2016-10-29T07:06:07.924Z,71.26
2016-10-29T07:07:17.931Z,71.16
2016-10-29T07:08:28.240Z,71.45
2016-10-29T07:09:38.274Z,71.26
2016-10-29T07:10:48.579Z,71.26
2016-10-29T07:11:58.644Z,70.87
2016-10-29T07:13:08.935Z,71.01
2016-10-29T07:14:19.246Z,71.01
2016-10-29T07:15:29.238Z,71.01
2016-10-29T07:16:39.517Z,71.01
2016-10-29T07:17:49.825Z,71.2
2016-10-29T07:19:00.114Z,71.2
2016-10-29T07:20:10.158Z,71.2
2016-10-29T07:21:20.147Z,71.3
2016-10-29T07:22:30.433Z,70.62
2016-10-29T07:23:40.111Z,70.43
2016-10-29T07:24:50.411Z,70.76
2016-10-29T07:26:00.449Z,70.76
2016-10-29T07:27:10.810Z,70.47
2016-10-29T07:28:20.796Z,70.28
2016-10-29T07:29:31.098Z,70.56
2016-10-29T07:30:41.099Z,70.18
2016-10-29T07:31:51.096Z,70.09
2016-10-29T07:33:01.100Z,70.76
2016-10-29T07:34:11.442Z,70.5
2016-10-29T07:35:21.776Z,70.31
2016-10-29T07:36:31.771Z,70.5
2016-10-29T07:37:42.080Z,70.79
2016-10-29T07:38:52.062Z,70.47
2016-10-29T07:40:02.070Z,70.41
2016-10-29T07:41:12.678Z,70.47
2016-10-29T07:42:22.666Z,70.76
2016-10-29T07:43:32.989Z,71.14
2016-10-29T07:44:43.290Z,71.23
2016-10-29T07:45:53.604Z,71.33
2016-10-29T07:47:03.913Z,71.23
2016-10-29T07:48:14.225Z,71.04
2016-10-29T07:49:24.531Z,71.23
2016-10-29T07:50:34.236Z,70.56
2016-10-29T07:51:44.542Z,70.28
2016-10-29T07:52:54.562Z,70.56
2016-10-29T07:54:04.905Z,70.47
2016-10-29T07:55:15.276Z,70.79
2016-10-29T07:56:25.597Z,70.41
2016-10-29T07:57:35.916Z,70.7
2016-10-29T07:58:45.618Z,70.41
2016-10-29T07:59:55.637Z,70.89
2016-10-29T08:01:05.974Z,70.79
2016-10-29T08:02:16.279Z,70.7
2016-10-29T08:03:26.277Z,70.21
2016-10-29T08:04:36.373Z,70.79
2016-10-29T08:05:46.675Z,70.31
2016-10-29T08:06:56.674Z,70.12
2016-10-29T08:08:06.666Z,69.87
2016-10-29T08:09:16.983Z,70.06
2016-10-29T08:10:27.293Z,70.06
2016-10-29T08:11:37.592Z,69.81
2016-10-29T08:12:47.893Z,69.96
2016-10-29T08:13:58.198Z,69.9
2016-10-29T08:15:08.485Z,69.81
2016-10-29T08:16:18.802Z,69.52
2016-10-29T08:17:29.118Z,69.23
2016-10-29T08:18:39.161Z,68.98
2016-10-29T08:19:49.467Z,68.79
2016-10-29T08:20:59.798Z,69.17
2016-10-29T08:22:09.789Z,69.56
2016-10-29T08:23:20.112Z,69.65
2016-10-29T08:24:30.452Z,69.26
2016-10-29T08:25:40.807Z,69.46
2016-10-29T08:26:50.812Z,70.03
2016-10-29T08:28:00.802Z,69.65
2016-10-29T08:29:10.804Z,69.68
2016-10-29T08:30:21.121Z,69.56
2016-10-29T08:31:31.450Z,69.56
2016-10-29T08:32:41.787Z,69.65
2016-10-29T08:33:51.767Z,69.74
2016-10-29T08:35:01.135Z,69.56
2016-10-29T08:36:11.534Z,69.65
2016-10-29T08:37:21.602Z,69.84
2016-10-29T08:38:31.920Z,69.74
2016-10-29T08:39:42.286Z,70.13
2016-10-29T08:40:52.805Z,69.93
2016-10-29T08:42:02.811Z,69.84
2016-10-29T08:43:13.113Z,69.11
2016-10-29T08:44:23.452Z,69.2
2016-10-29T08:45:33.758Z,69.4
2016-10-29T08:46:43.767Z,69.3
2016-10-29T08:47:54.122Z,69.4
2016-10-29T08:49:04.419Z,69.49
2016-10-29T08:50:14.425Z,69.49
2016-10-29T08:51:24.739Z,69.3
2016-10-29T08:52:34.745Z,69.43
2016-10-29T08:53:45.291Z,69.34
2016-10-29T08:54:55.584Z,69.62
2016-10-29T08:56:05.930Z,69.43
2016-10-29T08:57:15.940Z,69.34
2016-10-29T08:58:26.261Z,69.43
2016-10-29T08:59:36.611Z,69.72
2016-10-29T09:00:46.918Z,69.24
2016-10-29T09:01:56.918Z,69.34
2016-10-29T09:03:07.274Z,70.1
2016-10-29T09:04:17.583Z,69.62
2016-10-29T09:05:27.888Z,69.46
2016-10-29T09:06:37.889Z,69.46
2016-10-29T09:07:48.176Z,69.75
2016-10-29T09:08:58.215Z,68.98
2016-10-29T09:10:08.511Z,68.98
2016-10-29T09:11:18.815Z,68.98
2016-10-29T09:12:28.819Z,69.75
2016-10-29T09:13:39.150Z,69.66
2016-10-29T09:14:49.686Z,69.66
2016-10-29T09:15:59.402Z,69.56
2016-10-29T09:17:09.411Z,69.46
2016-10-29T09:18:19.411Z,68.92
2016-10-29T09:19:29.721Z,69.66
2016-10-29T09:20:39.729Z,69.5
2016-10-29T09:21:50.046Z,69.5
2016-10-29T09:23:00.099Z,68.92
2016-10-29T09:24:10.429Z,68.63
2016-10-29T09:25:20.740Z,68.83
2016-10-29T09:26:31.074Z,68.63
2016-10-29T09:27:40.773Z,68.73
2016-10-29T09:28:50.774Z,68.63
2016-10-29T09:30:00.767Z,68.54
2016-10-29T09:31:10.769Z,69.24
2016-10-29T09:32:20.799Z,68.63
2016-10-29T09:33:30.801Z,68.76
2016-10-29T09:34:41.118Z,68.76
2016-10-29T09:35:51.125Z,69.15
2016-10-29T09:37:01.142Z,69.06
2016-10-29T09:38:11.459Z,69.06
2016-10-29T09:39:21.779Z,69.06
2016-10-29T09:40:32.105Z,69.15
2016-10-29T09:41:42.469Z,69.15
2016-10-29T09:42:52.479Z,68.67
2016-10-29T09:44:02.773Z,68.96
2016-10-29T09:45:12.769Z,68.86
2016-10-29T09:46:23.096Z,69.06
2016-10-29T09:47:33.402Z,69.06
2016-10-29T09:48:43.408Z,68.9
2016-10-29T09:49:53.719Z,68.96
2016-10-29T09:51:03.720Z,68.99
2016-10-29T09:52:13.756Z,68.7
2016-10-29T09:53:24.065Z,68.41
2016-10-29T09:54:34.065Z,68.51
2016-10-29T09:55:44.367Z,69.09
2016-10-29T09:56:54.686Z,68.99
2016-10-29T09:58:04.686Z,68.51
2016-10-29T09:59:14.691Z,68.6
2016-10-29T10:00:24.700Z,68.51
2016-10-29T10:01:35.015Z,68.41
2016-10-29T10:02:45.358Z,68.35
2016-10-29T10:03:55.652Z,69.18
2016-10-29T10:05:05.962Z,68.7
2016-10-29T10:06:16.276Z,68.6
2016-10-29T10:07:26.587Z,69.85
2016-10-29T10:08:36.887Z,69.47
2016-10-29T10:09:46.901Z,69.67
2016-10-29T10:10:57.212Z,69.57
2016-10-29T10:12:06.900Z,70.11
2016-10-29T10:13:17.194Z,69.92
2016-10-29T10:14:27.190Z,70.11
2016-10-29T10:15:37.486Z,70.11
2016-10-29T10:16:47.478Z,70.3
2016-10-29T10:17:57.788Z,70.11
2016-10-29T10:19:07.486Z,70.01
2016-10-29T10:20:17.490Z,70.5
2016-10-29T10:21:27.791Z,69.98
2016-10-29T10:22:37.782Z,70.75
2016-10-29T10:23:48.150Z,70.37
2016-10-29T10:24:58.151Z,69.98
2016-10-29T10:26:07.844Z,70.17
2016-10-29T10:27:18.175Z,70.07
2016-10-29T10:28:28.490Z,69.79
2016-10-29T10:29:38.804Z,69.79
2016-10-29T10:30:48.194Z,69.89
2016-10-29T10:31:58.210Z,70.07
2016-10-29T10:33:08.526Z,69.98
2016-10-29T10:34:18.522Z,69.98
2016-10-29T10:35:28.839Z,69.98
2016-10-29T10:36:39.161Z,69.69
2016-10-29T10:37:48.848Z,69.31
2016-10-29T10:38:58.825Z,69.82
2016-10-29T10:40:09.136Z,68.86
2016-10-29T10:41:19.442Z,68.86
2016-10-29T10:42:29.746Z,68.6
2016-10-29T10:43:39.752Z,68.99
2016-10-29T10:44:50.087Z,68.9
2016-10-29T10:46:00.143Z,68.8
2016-10-29T10:47:10.202Z,68.9
2016-10-29T10:48:20.225Z,69.09
2016-10-29T10:49:30.613Z,69.15
2016-10-29T10:50:40.666Z,69.73
2016-10-29T10:51:50.690Z,70.01
2016-10-29T10:53:00.693Z,71.61
2016-10-29T10:54:10.688Z,71.48
2016-10-29T10:55:20.720Z,72.5
2016-10-29T10:56:30.709Z,72.47
2016-10-29T10:57:41.088Z,72.66
2016-10-29T10:58:51.444Z,73.39
2016-10-29T11:00:01.766Z,73.39
2016-10-29T11:01:12.120Z,72.81
2016-10-29T11:02:22.583Z,72.97
2016-10-29T11:03:32.588Z,72.78
2016-10-29T11:04:42.909Z,72.45
2016-10-29T11:05:53.265Z,72.55
2016-10-29T11:07:03.580Z,72.74
2016-10-29T11:08:13.613Z,72.55
2016-10-29T11:09:23.332Z,71.78
2016-10-29T11:10:33.126Z,72.07
2016-10-29T11:11:43.116Z,71.69
2016-10-29T11:12:53.124Z,71.21
2016-10-29T11:14:03.126Z,71.31
2016-10-29T11:15:13.158Z,71.37
2016-10-29T11:16:23.188Z,71.27
2016-10-29T11:17:33.224Z,71.11
2016-10-29T11:18:43.539Z,70.6
2016-10-29T11:19:53.275Z,70.44
2016-10-29T11:21:03.299Z,70.35
2016-10-29T11:22:13.358Z,70.83
2016-10-29T11:23:23.658Z,70.44
2016-10-29T11:24:33.647Z,70.64
2016-10-29T11:25:43.697Z,69.77
2016-10-29T11:26:53.746Z,69.96
2016-10-29T11:28:03.432Z,69.77
2016-10-29T11:29:13.501Z,69.52
2016-10-29T11:30:23.494Z,69.13
2016-10-29T11:31:33.807Z,69.23
2016-10-29T11:32:44.096Z,68.85
2016-10-29T11:33:54.412Z,68.59
2016-10-29T11:35:04.709Z,68.4
2016-10-29T11:36:15.057Z,68.4
2016-10-29T11:37:25.072Z,68.53
2016-10-29T11:38:35.390Z,68.53
2016-10-29T11:39:45.795Z,68.63
2016-10-29T11:40:55.829Z,68.15
2016-10-29T11:42:06.135Z,68.73
2016-10-29T11:43:15.865Z,68.53
2016-10-29T11:44:25.885Z,68.44
2016-10-29T11:45:36.197Z,69.2
2016-10-29T11:46:46.511Z,69.49
2016-10-29T11:47:56.492Z,69.2
2016-10-29T11:49:06.795Z,69.68
2016-10-29T11:50:17.105Z,70.03
2016-10-29T11:51:27.083Z,69.93
2016-10-29T11:52:37.402Z,69.93
2016-10-29T11:53:47.706Z,70.42
2016-10-29T11:54:58.011Z,70.03
2016-10-29T11:56:08.024Z,70.32
2016-10-29T11:57:18.366Z,70.32
2016-10-29T11:58:28.677Z,70.23
2016-10-29T11:59:38.687Z,70.32
2016-10-29T12:00:48.710Z,69.84
2016-10-29T12:01:59.023Z,70.23
2016-10-29T12:03:09.024Z,70.32
2016-10-29T12:04:19.035Z,69.93
2016-10-29T12:05:29.081Z,69.74
2016-10-29T12:06:39.380Z,70.23
2016-10-29T12:07:49.377Z,70.23
2016-10-29T12:08:59.702Z,70.23
2016-10-29T12:10:09.988Z,70.03
2016-10-29T12:11:19.958Z,69.93
2016-10-29T12:12:29.945Z,69.84
2016-10-29T12:13:40.235Z,69.49
2016-10-29T12:14:50.237Z,69.59
2016-10-29T12:16:00.552Z,69.49
2016-10-29T12:17:10.550Z,69.68
2016-10-29T12:18:20.539Z,69.59
2016-10-29T12:19:30.832Z,69.68
2016-10-29T12:20:41.128Z,69.84
2016-10-29T12:21:51.420Z,69.84
2016-10-29T12:23:01.767Z,69.01
2016-10-29T12:24:12.064Z,68.47
2016-10-29T12:25:22.046Z,68.08
2016-10-29T12:26:32.338Z,68.12
2016-10-29T12:27:41.713Z,67.58
2016-10-29T12:28:52.012Z,67.96
2016-10-29T12:30:02.297Z,68.79
2016-10-29T12:31:12.288Z,68.51
2016-10-29T12:32:22.602Z,69.27
2016-10-29T12:33:32.908Z,69.56
2016-10-29T12:34:42.881Z,69.43
2016-10-29T12:35:53.171Z,69.08
2016-10-29T12:37:03.155Z,68.25
2016-10-29T12:38:13.473Z,67.32
2016-10-29T12:39:23.781Z,67.8
2016-10-29T12:40:34.103Z,67.93
2016-10-29T12:41:44.104Z,68.03
2016-10-29T12:42:54.464Z,68.13
2016-10-29T12:44:04.475Z,68.48
2016-10-29T12:45:14.467Z,68.86
2016-10-29T12:46:24.461Z,68.38
2016-10-29T12:47:34.443Z,69.15
2016-10-29T12:48:44.454Z,69.15
2016-10-29T12:49:54.157Z,69.24
2016-10-29T12:51:04.158Z,69.82
2016-10-29T12:52:13.820Z,70.17
2016-10-29T12:53:23.802Z,70.72
2016-10-29T12:54:33.790Z,71.19
2016-10-29T12:55:43.821Z,71.25
2016-10-29T12:56:54.131Z,71.83
2016-10-29T12:58:04.133Z,71.73
2016-10-29T12:59:14.156Z,71.61
2016-10-29T13:00:24.448Z,71.41
2016-10-29T13:01:34.137Z,70.45
2016-10-29T13:02:44.181Z,70.29
2016-10-29T13:03:53.902Z,70.97
2016-10-29T13:05:03.270Z,70.55
2016-10-29T13:06:13.637Z,70.84
2016-10-29T13:07:23.932Z,71.41
2016-10-29T13:08:34.234Z,71.31
2016-10-29T13:09:44.523Z,70.7
2016-10-29T13:10:54.201Z,70.51
2016-10-29T13:12:04.214Z,70.07
2016-10-29T13:13:14.209Z,70.26
2016-10-29T13:14:23.899Z,69.97
2016-10-29T13:15:33.890Z,70.55
2016-10-29T13:16:44.192Z,69.78
2016-10-29T13:17:54.492Z,69.87
2016-10-29T13:19:04.514Z,69.59
2016-10-29T13:20:14.492Z,69.2
2016-10-29T13:21:24.786Z,69.53
2016-10-29T13:22:34.469Z,69.43
2016-10-29T13:23:44.782Z,69.62
2016-10-29T13:24:54.821Z,69.62
2016-10-29T13:26:04.519Z,69.05
2016-10-29T13:27:14.522Z,68.6
2016-10-29T13:28:24.513Z,68.41
2016-10-29T13:29:34.202Z,68.92
2016-10-29T13:30:44.505Z,68.35
2016-10-29T13:31:54.484Z,68.35
2016-10-29T13:33:04.795Z,69.02
2016-10-29T13:34:14.787Z,68.63
2016-10-29T13:35:24.789Z,68.83
2016-10-29T13:36:35.095Z,69.69
2016-10-29T13:37:45.401Z,70.04
2016-10-29T13:38:55.387Z,70.72
2016-10-29T13:40:05.676Z,70.68
2016-10-29T13:41:15.992Z,71.35
2016-10-29T13:42:25.984Z,70.97
2016-10-29T13:43:36.261Z,70.49
2016-10-29T13:44:46.556Z,70.55
2016-10-29T13:45:56.603Z,70.68
2016-10-29T13:47:06.901Z,70.45
2016-10-29T13:48:16.899Z,70.68
2016-10-29T13:49:27.197Z,70.2
2016-10-29T13:50:37.179Z,70.39
2016-10-29T13:51:47.171Z,70.1
2016-10-29T13:52:56.831Z,70.2
2016-10-29T13:54:07.131Z,70.01
2016-10-29T13:55:17.425Z,69.91
2016-10-29T13:56:27.738Z,69.91
2016-10-29T13:57:38.043Z,69.62
2016-10-29T13:58:47.712Z,69.81
2016-10-29T13:59:57.689Z,69.62
2016-10-29T14:01:07.375Z,69.05
2016-10-29T14:02:17.726Z,69.62
2016-10-29T14:03:27.742Z,69.43
2016-10-29T14:04:38.049Z,69.85
2016-10-29T14:05:48.347Z,69.81
2016-10-29T14:06:58.660Z,70.01
2016-10-29T14:08:09.018Z,70.2
2016-10-29T14:09:19.003Z,70.39
2016-10-29T14:10:29.012Z,70.49
2016-10-29T14:11:39.006Z,70.1
2016-10-29T14:12:49.343Z,70.26
2016-10-29T14:13:59.331Z,70.17
2016-10-29T14:15:09.635Z,70.45
2016-10-29T14:16:19.933Z,70.93
2016-10-29T14:17:29.904Z,70.93
2016-10-29T14:18:40.197Z,70.45
2016-10-29T14:19:49.871Z,70.93
2016-10-29T14:20:59.870Z,70.61
2016-10-29T14:22:09.856Z,70.7
2016-10-29T14:23:20.166Z,71.19
2016-10-29T14:24:30.140Z,71.19
2016-10-29T14:25:40.456Z,71.37
2016-10-29T14:26:50.462Z,71.19
2016-10-29T14:28:00.769Z,71.15
2016-10-29T14:29:10.761Z,70.86
2016-10-29T14:30:20.838Z,71.05
2016-10-29T14:31:30.824Z,71.25
2016-10-29T14:32:41.117Z,71.05
2016-10-29T14:33:50.784Z,71.25
2016-10-29T14:35:00.799Z,71.25
2016-10-29T14:36:11.103Z,71.05
2016-10-29T14:37:21.404Z,71.63
2016-10-29T14:38:31.403Z,71.63
2016-10-29T14:39:41.713Z,71.34
2016-10-29T14:40:52.035Z,71.4
2016-10-29T14:42:02.329Z,71.15
2016-10-29T14:43:12.316Z,71.34
2016-10-29T14:44:21.988Z,70.76
2016-10-29T14:45:31.985Z,70.38
2016-10-29T14:46:42.302Z,70.57
2016-10-29T14:47:52.648Z,70.67
2016-10-29T14:49:02.992Z,71.25
2016-10-29T14:50:13.342Z,71.15
2016-10-29T14:51:23.389Z,71.21
2016-10-29T14:52:33.671Z,71.21
2016-10-29T14:53:43.663Z,71.78
2016-10-29T14:54:53.328Z,71.59
2016-10-29T14:56:03.616Z,71.59
2016-10-29T14:57:13.930Z,71.31
2016-10-29T14:58:23.303Z,71.59
2016-10-29T14:59:33.640Z,71.5
2016-10-29T15:00:43.961Z,71.4
2016-10-29T15:01:53.943Z,71.5
2016-10-29T15:03:03.624Z,71.69
2016-10-29T15:04:13.613Z,71.59
2016-10-29T15:05:23.629Z,71.21
2016-10-29T15:06:33.961Z,71.46
2016-10-29T15:07:43.980Z,71.56
2016-10-29T15:08:54.283Z,71.37
2016-10-29T15:10:04.620Z,71.66
2016-10-29T15:11:14.911Z,71.75
2016-10-29T15:12:24.933Z,71.56
2016-10-29T15:13:35.156Z,72.23
2016-10-29T15:14:44.892Z,71.94
2016-10-29T15:15:54.867Z,72.29
2016-10-29T15:17:04.569Z,71.94
2016-10-29T15:18:14.880Z,71.91
2016-10-29T15:19:25.168Z,71.84
2016-10-29T15:20:35.484Z,71.81
2016-10-29T15:21:45.180Z,72
2016-10-29T15:22:55.653Z,72
2016-10-29T15:24:05.670Z,71.81
2016-10-29T15:25:15.362Z,71.91
2016-10-29T15:26:25.345Z,72.19
2016-10-29T15:27:35.645Z,71.91
2016-10-29T15:28:45.933Z,71.91
2016-10-29T15:29:56.232Z,71.91
2016-10-29T15:31:06.625Z,72.29
2016-10-29T15:32:16.915Z,71.68
2016-10-29T15:33:27.221Z,71.62
2016-10-29T15:34:36.899Z,71.52
2016-10-29T15:35:46.585Z,71.23
2016-10-29T15:36:56.297Z,71.52